Time;durP1;ratioP1;P1;durP2;ratioP2;P2;SDS_P1;SDS_P2;PMS_P1;PMS_P2;Temp;Humidity;BMP_temperature;BMP_pressure;BME280_temperature;BME280_humidity;BME280_pressure;Samples;Min_cycle;Max_cycle;Signal;HPM_P1;HPM_P2
2021/12/18 00:01:28;;;;;;;10.75;3.58;;;7.20;99.90;;;;;;4965307;28;20472;-66
2021/12/18 00:03:54;;;;;;;8.23;3.30;;;7.20;99.90;;;;;;4957098;28;20127;-66
2021/12/18 00:06:21;;;;;;;14.65;4.13;;;7.20;99.90;;;;;;4958811;28;20675;-66
2021/12/18 00:08:48;;;;;;;16.92;4.25;;;7.20;99.90;;;;;;4961172;28;20160;-66
2021/12/18 00:11:14;;;;;;;17.95;4.72;;;7.20;99.90;;;;;;4964879;28;20049;-66
2021/12/18 00:13:40;;;;;;;17.77;4.47;;;7.20;99.90;;;;;;4952725;28;20039;-66
2021/12/18 00:16:06;;;;;;;14.85;4.43;;;7.30;99.90;;;;;;4966821;28;20051;-66
2021/12/18 00:18:34;;;;;;;12.45;4.28;;;7.30;99.90;;;;;;4952110;28;20027;-66
2021/12/18 00:21:00;;;;;;;19.02;4.30;;;7.30;99.90;;;;;;4959988;28;20039;-66
2021/12/18 00:23:27;;;;;;;13.95;4.07;;;7.30;99.90;;;;;;4954823;28;20043;-66
2021/12/18 00:25:53;;;;;;;18.40;3.88;;;7.30;99.90;;;;;;4939713;28;20062;-66
2021/12/18 00:28:19;;;;;;;13.70;6.00;;;7.30;99.90;;;;;;4953450;28;20042;-66
2021/12/18 00:30:45;;;;;;;16.83;10.30;;;7.30;99.90;;;;;;4960920;28;20563;-66
2021/12/18 00:33:11;;;;;;;24.67;3.47;;;7.40;99.90;;;;;;4953451;28;20052;-66
2021/12/18 00:35:37;;;;;;;18.42;3.50;;;7.30;99.90;;;;;;4950984;28;20062;-66
2021/12/18 00:38:05;;;;;;;9.35;2.53;;;7.30;99.90;;;;;;4962125;28;20114;-66
2021/12/18 00:40:44;;;;;;;33.95;3.53;;;7.20;99.90;;;;;;4944905;28;20043;-66
2021/12/18 00:43:32;;;;;;;9.73;2.63;;;7.20;99.90;;;;;;4965844;28;20310;-66
2021/12/18 00:45:58;;;;;;;13.23;3.05;;;7.10;99.90;;;;;;4961274;28;20365;-66
2021/12/18 00:48:24;;;;;;;12.48;2.67;;;7.00;99.90;;;;;;4961379;28;20134;-66
2021/12/18 00:50:50;;;;;;;8.85;2.60;;;7.00;99.90;;;;;;4939114;28;20055;-66
2021/12/18 00:53:16;;;;;;;21.98;3.60;;;7.00;99.90;;;;;;4962249;28;20035;-66
2021/12/18 00:55:42;;;;;;;15.68;2.67;;;7.00;99.90;;;;;;4957587;28;20090;-66
2021/12/18 00:58:08;;;;;;;17.15;2.95;;;6.90;99.90;;;;;;4958960;28;20050;-66
2021/12/18 01:00:35;;;;;;;7.95;3.03;;;6.90;99.90;;;;;;4959665;28;20561;-66
2021/12/18 01:03:02;;;;;;;12.48;3.30;;;6.90;99.90;;;;;;4963607;28;20047;-66
2021/12/18 01:05:31;;;;;;;14.73;2.72;;;7.00;99.90;;;;;;4954354;28;20039;-67
2021/12/18 01:07:58;;;;;;;12.23;3.35;;;7.00;99.90;;;;;;4963217;28;20436;-67
2021/12/18 01:12:54;;;;;;;21.65;3.97;;;6.90;99.90;;;;;;4965422;28;20185;-67
2021/12/18 01:23:22;;;;;;;;;;;6.80;99.90;;;;;;4944539;28;20133;-67
2021/12/18 01:25:49;;;;;;;12.57;4.45;;;6.80;99.90;;;;;;4959176;28;19977;-67
2021/12/18 01:28:16;;;;;;;15.82;4.80;;;6.80;99.90;;;;;;4962255;28;20114;-67
2021/12/18 01:30:41;;;;;;;10.48;3.13;;;6.80;99.90;;;;;;4955964;28;20518;-67
2021/12/18 01:33:07;;;;;;;9.55;3.40;;;6.80;99.90;;;;;;4965004;28;20051;-67
2021/12/18 01:35:33;;;;;;;10.65;3.80;;;6.80;99.90;;;;;;4958363;28;20476;-67
2021/12/18 01:37:59;;;;;;;8.77;3.60;;;6.90;99.90;;;;;;4961897;28;20043;-67
2021/12/18 01:40:25;;;;;;;11.55;3.80;;;6.80;99.90;;;;;;4943567;28;20094;-67
2021/12/18 01:53:33;;;;;;;14.52;4.18;;;6.90;99.90;;;;;;4964363;28;20077;-67
2021/12/18 01:55:59;;;;;;;13.23;3.75;;;6.90;99.90;;;;;;4979542;28;20051;-67
2021/12/18 01:58:25;;;;;;;19.08;4.32;;;6.90;99.90;;;;;;4956421;28;20046;-66
2021/12/18 02:00:53;;;;;;;12.20;3.83;;;6.90;99.90;;;;;;4965617;28;20050;-66
2021/12/18 02:03:19;;;;;;;12.15;3.75;;;6.90;99.90;;;;;;4957405;28;20050;-66
2021/12/18 02:05:48;;;;;;;10.70;3.33;;;6.90;99.90;;;;;;4961596;28;20122;-66
2021/12/18 02:08:18;;;;;;;8.15;2.97;;;6.90;99.90;;;;;;4953692;28;20047;-66
2021/12/18 02:11:11;;;;;;;10.93;3.47;;;6.90;99.90;;;;;;4959605;28;20105;-66
2021/12/18 02:21:51;;;;;;;13.47;4.23;;;6.90;99.90;;;;;;4964558;28;20049;-66
2021/12/18 02:24:17;;;;;;;16.15;5.10;;;6.90;99.90;;;;;;4945503;28;20558;-66
2021/12/18 02:26:43;;;;;;;19.45;3.83;;;6.90;99.90;;;;;;4943578;28;20419;-66
2021/12/18 02:29:13;;;;;;;17.90;3.65;;;6.80;99.90;;;;;;4961457;28;20046;-66
2021/12/18 02:31:40;;;;;;;25.55;3.72;;;6.90;99.90;;;;;;4973871;28;20122;-66
2021/12/18 02:34:13;;;;;;;41.00;4.50;;;6.80;99.90;;;;;;4960635;28;20502;-66
2021/12/18 02:36:47;;;;;;;13.35;3.20;;;6.80;99.90;;;;;;4958679;28;20109;-66
2021/12/18 02:40:50;;;;;;;17.60;3.03;;;6.80;99.90;;;;;;4939349;28;20126;-66
2021/12/18 02:42:18;;;;;;;19.48;2.45;;;6.80;99.90;;;;;;4958640;28;20066;-66
2021/12/18 02:44:45;;;;;;;14.15;2.22;;;6.70;99.90;;;;;;4936847;28;20102;-66
2021/12/18 02:47:12;;;;;;;7.80;2.03;;;6.70;99.90;;;;;;4962346;28;20106;-66
2021/12/18 02:49:44;;;;;;;9.57;1.95;;;6.70;99.90;;;;;;4957417;28;20105;-66
2021/12/18 02:52:10;;;;;;;6.95;2.20;;;6.70;99.90;;;;;;4960152;28;20027;-66
2021/12/18 02:54:40;;;;;;;8.63;1.95;;;6.60;99.90;;;;;;4938093;28;20141;-66
2021/12/18 02:57:06;;;;;;;6.22;1.77;;;6.60;99.90;;;;;;4943804;28;20101;-66
2021/12/18 03:00:03;;;;;;;8.18;1.83;;;6.60;99.90;;;;;;4954474;28;20043;-66
2021/12/18 03:02:34;;;;;;;7.55;1.95;;;6.60;99.90;;;;;;4944317;28;20057;-66
2021/12/18 03:05:05;;;;;;;8.98;1.65;;;6.50;99.90;;;;;;4937874;28;20043;-66
2021/12/18 03:07:31;;;;;;;8.30;1.90;;;6.60;99.90;;;;;;4956780;28;20090;-66
2021/12/18 03:26:19;;;;;;;7.40;2.25;;;6.40;99.90;;;;;;4917442;28;20086;-66
2021/12/18 03:28:45;;;;;;;12.10;3.28;;;6.40;99.90;;;;;;4963068;28;20092;-66
2021/12/18 03:31:11;;;;;;;10.63;2.60;;;6.40;99.90;;;;;;4941034;28;20494;-66
2021/12/18 03:33:37;;;;;;;6.85;2.55;;;6.40;99.90;;;;;;4959243;28;20328;-66
2021/12/18 03:36:04;;;;;;;11.25;3.00;;;6.40;99.90;;;;;;4930672;28;20047;-66
2021/12/18 03:38:30;;;;;;;14.93;3.20;;;6.40;99.90;;;;;;4948912;28;20134;-66
2021/12/18 03:40:56;;;;;;;10.95;2.95;;;6.40;99.90;;;;;;4959865;28;20049;-66
2021/12/18 03:43:21;;;;;;;13.40;2.95;;;6.40;99.90;;;;;;4966771;28;20085;-66
2021/12/18 03:45:47;;;;;;;12.27;3.22;;;6.40;99.90;;;;;;4955575;28;20122;-66
2021/12/18 03:48:13;;;;;;;13.23;3.08;;;6.40;99.90;;;;;;4946086;28;20097;-66
2021/12/18 03:50:39;;;;;;;13.30;3.35;;;6.40;99.90;;;;;;4945800;28;20043;-66
2021/12/18 03:53:04;;;;;;;9.00;3.20;;;6.50;99.90;;;;;;4960329;28;20570;-66
2021/12/18 03:55:30;;;;;;;4.82;1.77;;;6.50;99.90;;;;;;4962822;28;20030;-66
2021/12/18 03:57:56;;;;;;;6.07;2.50;;;6.40;99.90;;;;;;4952106;28;20043;-66
2021/12/18 04:00:22;;;;;;;6.70;2.05;;;6.40;99.90;;;;;;4963754;28;20038;-66
2021/12/18 04:02:48;;;;;;;4.90;1.80;;;6.40;99.90;;;;;;4956210;28;20130;-66
2021/12/18 04:05:13;;;;;;;5.22;1.80;;;6.40;99.90;;;;;;4964481;28;20117;-66
2021/12/18 04:07:41;;;;;;;4.45;1.70;;;6.30;99.90;;;;;;4953728;28;20039;-66
2021/12/18 04:10:12;;;;;;;3.97;1.42;;;6.40;99.90;;;;;;4968514;28;20122;-66
2021/12/18 04:12:38;;;;;;;4.72;1.70;;;6.40;99.90;;;;;;4962450;28;20380;-66
2021/12/18 04:15:05;;;;;;;6.78;1.77;;;6.30;99.90;;;;;;4968035;28;20104;-66
2021/12/18 04:17:30;;;;;;;6.90;2.20;;;6.30;99.90;;;;;;4940566;28;20125;-66
2021/12/18 04:19:56;;;;;;;5.95;1.80;;;6.30;99.90;;;;;;4963704;28;20126;-66
2021/12/18 04:22:22;;;;;;;10.27;2.65;;;6.30;99.90;;;;;;4956699;28;20488;-66
2021/12/18 04:24:48;;;;;;;7.80;2.47;;;6.40;99.90;;;;;;4965877;28;20131;-66
2021/12/18 04:27:13;;;;;;;8.27;2.38;;;6.40;99.90;;;;;;4961129;28;20089;-66
2021/12/18 04:29:39;;;;;;;6.43;2.20;;;6.40;99.90;;;;;;4949369;28;20443;-66
2021/12/18 04:32:05;;;;;;;4.53;1.65;;;6.30;99.90;;;;;;4946749;28;20038;-66
2021/12/18 04:34:30;;;;;;;3.53;1.15;;;6.30;99.90;;;;;;4947751;28;20101;-66
2021/12/18 04:36:56;;;;;;;3.88;0.80;;;6.30;99.90;;;;;;4947448;28;20047;-66
2021/12/18 04:39:22;;;;;;;4.30;1.40;;;6.30;99.90;;;;;;4957467;28;20046;-66
2021/12/18 04:41:51;;;;;;;6.93;1.27;;;6.20;99.90;;;;;;4964867;28;20027;-66
2021/12/18 04:44:17;;;;;;;8.27;1.90;;;6.30;99.90;;;;;;4961428;28;20077;-66
2021/12/18 04:46:43;;;;;;;13.57;2.08;;;6.30;99.90;;;;;;4960859;28;20059;-66
2021/12/18 04:49:09;;;;;;;8.88;2.30;;;6.20;99.90;;;;;;4956974;28;20101;-66
2021/12/18 04:51:35;;;;;;;12.63;2.58;;;6.20;99.90;;;;;;4965569;28;20038;-66
2021/12/18 04:54:00;;;;;;;9.10;2.42;;;6.20;99.90;;;;;;4961106;28;22026;-66
2021/12/18 04:56:26;;;;;;;6.90;1.38;;;6.20;99.90;;;;;;4964654;28;20180;-66
2021/12/18 04:58:52;;;;;;;7.38;2.10;;;6.20;99.90;;;;;;4957893;28;20113;-66
2021/12/18 05:01:18;;;;;;;11.02;1.58;;;6.30;99.90;;;;;;4948672;28;20481;-66
2021/12/18 05:03:46;;;;;;;8.10;1.50;;;6.30;99.90;;;;;;4958960;28;20467;-66
2021/12/18 05:06:11;;;;;;;9.55;1.70;;;6.20;99.90;;;;;;4960542;28;20039;-66
2021/12/18 05:08:37;;;;;;;8.10;1.77;;;6.30;99.90;;;;;;4958516;28;20046;-66
2021/12/18 05:11:03;;;;;;;9.85;1.90;;;6.30;99.90;;;;;;4965620;28;20034;-66
2021/12/18 05:13:29;;;;;;;10.57;2.30;;;6.30;99.90;;;;;;4965136;28;20126;-66
2021/12/18 05:15:54;;;;;;;10.82;2.47;;;6.30;99.90;;;;;;4959334;28;20111;-66
2021/12/18 05:18:20;;;;;;;14.80;2.40;;;6.40;99.90;;;;;;4959335;28;20035;-66
2021/12/18 05:20:46;;;;;;;8.57;2.20;;;6.40;99.90;;;;;;4959126;28;20097;-66
2021/12/18 05:23:12;;;;;;;11.43;2.00;;;6.40;99.90;;;;;;4961744;28;20061;-66
2021/12/18 05:25:38;;;;;;;11.45;2.15;;;6.40;99.90;;;;;;4958793;28;20073;-66
2021/12/18 05:28:04;;;;;;;11.20;2.33;;;6.30;99.90;;;;;;4966542;28;20492;-66
2021/12/18 05:30:30;;;;;;;11.25;2.50;;;6.30;99.90;;;;;;4959264;28;20035;-66
2021/12/18 05:32:56;;;;;;;14.13;2.65;;;6.40;99.90;;;;;;4966125;28;21067;-66
2021/12/18 05:35:21;;;;;;;13.70;2.10;;;6.40;99.90;;;;;;4954882;28;20123;-66
2021/12/18 05:37:50;;;;;;;9.65;2.20;;;6.40;99.90;;;;;;4962751;28;20034;-66
2021/12/18 05:40:23;;;;;;;11.10;1.90;;;6.30;99.90;;;;;;4959166;28;20756;-66
2021/12/18 05:42:50;;;;;;;11.90;2.88;;;6.40;99.90;;;;;;4965038;28;20051;-66
2021/12/18 05:45:16;;;;;;;15.20;2.58;;;6.30;99.90;;;;;;4958694;28;20046;-66
2021/12/18 05:47:43;;;;;;;13.50;2.45;;;6.30;99.90;;;;;;4962328;28;20051;-65
2021/12/18 05:50:11;;;;;;;18.15;3.10;;;6.30;99.90;;;;;;4942173;28;20496;-66
2021/12/18 05:52:37;;;;;;;17.33;3.35;;;6.30;99.90;;;;;;4965460;28;20057;-66
2021/12/18 05:55:04;;;;;;;11.70;3.03;;;6.40;99.90;;;;;;4943964;28;20035;-66
2021/12/18 05:57:30;;;;;;;25.10;3.85;;;6.40;99.90;;;;;;4937246;28;20138;-66
2021/12/18 05:59:56;;;;;;;20.73;3.17;;;6.40;99.90;;;;;;4958248;28;20043;-66
2021/12/18 06:02:21;;;;;;;14.00;3.08;;;6.40;99.90;;;;;;4962097;28;20031;-66
2021/12/18 06:04:47;;;;;;;23.05;3.42;;;6.40;99.90;;;;;;4947223;28;20518;-66
2021/12/18 06:07:27;;;;;;;20.25;3.65;;;6.40;99.90;;;;;;4959032;28;20073;-66
2021/12/18 06:09:54;;;;;;;17.63;3.83;;;6.40;99.90;;;;;;4966680;28;20038;-66
2021/12/18 06:12:20;;;;;;;19.58;4.90;;;6.40;99.90;;;;;;4957514;28;20089;-66
2021/12/18 06:14:46;;;;;;;33.33;12.65;;;6.40;99.90;;;;;;4948996;28;20467;-66
2021/12/18 06:17:11;;;;;;;17.35;4.72;;;6.40;99.90;;;;;;4944852;28;20067;-66
2021/12/18 06:19:37;;;;;;;18.45;3.95;;;6.40;99.90;;;;;;4962791;28;20070;-66
2021/12/18 06:22:03;;;;;;;24.75;3.97;;;6.50;99.90;;;;;;4952991;28;20035;-66
2021/12/18 06:24:29;;;;;;;16.20;3.50;;;6.50;99.90;;;;;;4958676;28;20043;-66
2021/12/18 06:26:56;;;;;;;18.85;3.78;;;6.50;99.90;;;;;;4957161;28;25216;-66
2021/12/18 06:29:22;;;;;;;18.88;3.67;;;6.50;99.90;;;;;;4965197;28;20047;-66
2021/12/18 06:31:48;;;;;;;19.63;3.03;;;6.50;99.90;;;;;;4959327;28;20077;-66
2021/12/18 06:34:14;;;;;;;16.55;3.70;;;6.50;99.90;;;;;;4940184;28;20620;-66
2021/12/18 06:36:40;;;;;;;17.38;3.50;;;6.50;99.90;;;;;;4964240;28;20045;-66
2021/12/18 06:39:06;;;;;;;15.27;3.38;;;6.50;99.90;;;;;;4957004;28;20525;-66
2021/12/18 06:41:32;;;;;;;18.30;3.13;;;6.50;99.90;;;;;;4940346;28;20087;-66
2021/12/18 06:43:58;;;;;;;17.23;3.42;;;6.50;99.90;;;;;;4952407;28;20074;-66
2021/12/18 06:46:24;;;;;;;17.65;3.38;;;6.50;99.90;;;;;;4956643;28;20043;-66
2021/12/18 06:48:49;;;;;;;18.13;3.83;;;6.50;99.90;;;;;;4949780;28;20441;-66
2021/12/18 06:51:17;;;;;;;19.75;4.18;;;6.50;99.90;;;;;;4943649;28;20157;-66
2021/12/18 06:53:42;;;;;;;19.17;3.80;;;6.50;99.90;;;;;;4955447;28;20074;-65
2021/12/18 06:56:08;;;;;;;16.67;3.70;;;6.50;99.90;;;;;;4965254;28;20511;-65
2021/12/18 06:58:34;;;;;;;33.67;4.60;;;6.50;99.90;;;;;;4961892;28;20030;-66
2021/12/18 07:00:59;;;;;;;21.38;3.72;;;6.50;99.90;;;;;;4959362;28;20039;-65
2021/12/18 07:03:26;;;;;;;23.08;4.07;;;6.50;99.90;;;;;;4954544;28;20181;-65
2021/12/18 07:05:51;;;;;;;26.48;3.90;;;6.50;99.90;;;;;;4944375;28;20105;-65
2021/12/18 07:08:17;;;;;;;18.05;3.80;;;6.60;99.90;;;;;;4940094;28;20130;-65
2021/12/18 07:10:44;;;;;;;19.42;3.85;;;6.60;99.90;;;;;;4960566;28;20430;-65
2021/12/18 07:13:10;;;;;;;26.40;4.53;;;6.60;99.90;;;;;;4962807;28;20053;-66
2021/12/18 07:15:37;;;;;;;29.80;4.28;;;6.60;99.90;;;;;;4952271;28;20129;-66
2021/12/18 07:18:03;;;;;;;18.77;4.05;;;6.60;99.90;;;;;;4965841;28;20039;-66
2021/12/18 07:20:29;;;;;;;20.45;3.97;;;6.60;99.90;;;;;;4957199;28;20035;-66
2021/12/18 07:22:55;;;;;;;21.05;4.10;;;6.60;99.90;;;;;;4957275;28;20128;-66
2021/12/18 07:25:21;;;;;;;28.05;5.00;;;6.60;99.90;;;;;;4942211;28;20137;-66
2021/12/18 07:27:47;;;;;;;32.88;4.60;;;6.60;99.90;;;;;;4941294;28;20050;-66
2021/12/18 07:30:13;;;;;;;21.20;3.97;;;6.60;99.90;;;;;;4954737;28;20097;-66
2021/12/18 07:32:39;;;;;;;26.38;4.07;;;6.70;99.90;;;;;;4962334;28;20043;-66
2021/12/18 07:35:07;;;;;;;19.35;4.40;;;6.70;99.90;;;;;;4937139;28;20039;-66
2021/12/18 07:37:32;;;;;;;18.92;4.10;;;6.60;99.90;;;;;;4957106;28;20418;-66
2021/12/18 07:39:58;;;;;;;21.25;3.92;;;6.70;99.90;;;;;;4944093;28;20085;-66
2021/12/18 07:42:24;;;;;;;25.05;4.57;;;6.70;99.90;;;;;;4946255;28;20042;-66
2021/12/18 07:44:50;;;;;;;19.35;3.80;;;6.70;99.90;;;;;;4956714;28;20467;-66
2021/12/18 07:47:17;;;;;;;19.83;4.05;;;6.70;99.90;;;;;;4971412;28;20129;-66
2021/12/18 07:49:43;;;;;;;27.90;4.70;;;6.70;99.90;;;;;;4966344;28;20097;-66
2021/12/18 07:52:08;;;;;;;22.35;4.13;;;6.70;99.90;;;;;;4941388;28;20583;-66
2021/12/18 07:54:34;;;;;;;23.33;4.25;;;6.70;99.90;;;;;;4948708;28;20062;-66
2021/12/18 07:57:00;;;;;;;30.65;4.53;;;6.70;99.90;;;;;;4961803;28;20046;-66
2021/12/18 07:59:26;;;;;;;22.63;4.30;;;6.70;99.90;;;;;;4967211;28;20480;-66
2021/12/18 08:01:51;;;;;;;28.40;5.22;;;6.80;99.90;;;;;;4956760;28;20038;-66
2021/12/18 08:04:17;;;;;;;24.35;3.97;;;6.80;99.90;;;;;;4967388;28;20164;-66
2021/12/18 08:06:43;;;;;;;19.25;4.35;;;6.80;99.90;;;;;;4948130;28;20078;-66
2021/12/18 08:09:08;;;;;;;22.33;4.38;;;6.80;99.90;;;;;;4944028;28;20093;-66
2021/12/18 08:11:34;;;;;;;28.50;4.63;;;6.80;99.90;;;;;;4957306;28;20045;-66
2021/12/18 08:14:00;;;;;;;28.92;4.32;;;6.80;99.90;;;;;;4965314;28;20510;-66
2021/12/18 08:16:25;;;;;;;20.77;4.43;;;6.80;99.90;;;;;;4962356;28;20074;-66
2021/12/18 08:18:51;;;;;;;30.10;4.57;;;6.90;99.90;;;;;;4961530;28;20070;-66
2021/12/18 08:21:17;;;;;;;35.72;4.95;;;6.90;99.90;;;;;;4960195;28;20043;-66
2021/12/18 08:23:42;;;;;;;28.17;5.35;;;6.90;99.90;;;;;;4950191;28;20130;-66
2021/12/18 08:26:08;;;;;;;28.15;5.28;;;6.90;99.90;;;;;;4964636;28;20042;-66
2021/12/18 08:28:34;;;;;;;44.40;6.07;;;6.90;99.90;;;;;;4936441;28;20062;-66
2021/12/18 08:31:00;;;;;;;36.35;5.95;;;6.90;99.90;;;;;;4932536;28;20073;-66
2021/12/18 08:33:26;;;;;;;25.35;5.55;;;7.00;99.90;;;;;;4943244;28;20043;-66
2021/12/18 08:35:52;;;;;;;28.30;4.95;;;7.00;99.90;;;;;;4965973;28;20097;-66
2021/12/18 08:38:17;;;;;;;30.75;5.53;;;7.00;99.90;;;;;;4946675;28;20055;-66
2021/12/18 08:40:45;;;;;;;29.83;6.00;;;7.00;99.90;;;;;;4964897;28;20392;-66
2021/12/18 08:43:11;;;;;;;25.15;5.60;;;7.00;99.90;;;;;;4959321;28;20337;-66
2021/12/18 08:45:38;;;;;;;39.65;6.90;;;7.00;99.90;;;;;;4948453;28;20058;-66
2021/12/18 08:48:04;;;;;;;30.17;5.57;;;7.10;99.90;;;;;;4960876;28;20377;-66
2021/12/18 08:50:30;;;;;;;20.05;4.85;;;7.10;99.90;;;;;;4950446;28;20050;-65
2021/12/18 08:52:56;;;;;;;34.67;6.57;;;7.10;99.90;;;;;;4959525;28;20130;-65
2021/12/18 08:55:23;;;;;;;23.80;5.72;;;7.20;99.90;;;;;;4963730;28;20158;-65
2021/12/18 08:57:49;;;;;;;26.70;6.15;;;7.10;99.90;;;;;;4964830;28;20079;-70
2021/12/18 09:00:23;;;;;;;24.95;5.30;;;7.20;99.90;;;;;;4965481;28;20112;-65
2021/12/18 09:02:54;;;;;;;33.93;6.50;;;7.20;99.90;;;;;;4946690;28;20046;-65
2021/12/18 09:05:20;;;;;;;38.55;14.98;;;7.20;99.90;;;;;;4963404;28;20331;-65
2021/12/18 09:07:46;;;;;;;57.38;26.77;;;7.20;99.90;;;;;;4945871;28;20051;-65
2021/12/18 09:10:14;;;;;;;32.53;9.27;;;7.30;99.90;;;;;;4961065;28;20038;-66
2021/12/18 09:12:41;;;;;;;34.72;7.35;;;7.30;99.90;;;;;;4964655;28;20039;-66
2021/12/18 09:15:07;;;;;;;27.80;6.82;;;7.40;99.90;;;;;;4956551;28;20097;-65
2021/12/18 09:17:33;;;;;;;21.10;6.88;;;7.40;99.90;;;;;;4966431;28;20484;-65
2021/12/18 09:19:59;;;;;;;27.67;7.78;;;7.40;99.90;;;;;;4964713;28;20038;-65
2021/12/18 09:22:25;;;;;;;25.75;7.13;;;7.50;99.90;;;;;;4947544;28;20061;-65
2021/12/18 09:24:50;;;;;;;24.73;7.18;;;7.50;99.90;;;;;;4967521;28;20038;-66
2021/12/18 09:27:17;;;;;;;26.90;8.15;;;7.50;99.90;;;;;;4966591;28;20415;-66
2021/12/18 09:29:43;;;;;;;45.00;19.73;;;7.50;99.90;;;;;;4956474;28;20601;-66
2021/12/18 09:32:09;;;;;;;38.70;16.83;;;7.50;99.90;;;;;;4947443;28;20562;-66
2021/12/18 09:34:35;;;;;;;18.40;7.28;;;7.60;99.90;;;;;;4959136;28;20140;-66
2021/12/18 09:37:01;;;;;;;21.52;7.38;;;7.50;99.90;;;;;;4962524;28;20031;-66
2021/12/18 09:39:28;;;;;;;18.27;7.05;;;7.60;99.90;;;;;;4956669;28;20119;-66
2021/12/18 09:41:54;;;;;;;24.30;7.90;;;7.60;99.90;;;;;;4945110;28;20058;-65
2021/12/18 09:44:24;;;;;;;24.05;7.80;;;7.70;99.90;;;;;;4960046;28;20101;-66
2021/12/18 09:46:50;;;;;;;23.42;7.43;;;7.80;99.90;;;;;;4965898;28;20059;-66
2021/12/18 09:49:16;;;;;;;23.73;7.55;;;7.70;99.90;;;;;;4944626;28;20086;-65
2021/12/18 09:51:42;;;;;;;24.20;7.78;;;7.70;99.90;;;;;;4956499;28;20038;-65
2021/12/18 09:54:08;;;;;;;19.05;6.97;;;7.80;99.90;;;;;;4961065;28;20039;-65
2021/12/18 09:56:34;;;;;;;22.27;6.88;;;7.90;99.90;;;;;;4955384;28;20101;-65
2021/12/18 09:59:00;;;;;;;33.03;8.50;;;7.90;99.90;;;;;;4965350;28;20035;-66
2021/12/18 10:01:26;;;;;;;22.23;7.57;;;8.00;99.90;;;;;;4960138;28;20418;-66
2021/12/18 10:03:58;;;;;;;36.28;8.77;;;8.00;99.90;;;;;;4960688;28;20051;-65
2021/12/18 10:06:44;;;;;;;20.52;7.28;;;8.10;99.90;;;;;;4938933;28;20422;-66
2021/12/18 10:09:17;;;;;;;21.45;7.32;;;8.10;99.90;;;;;;4966208;28;20042;-66
2021/12/18 10:12:03;;;;;;;21.10;6.95;;;8.10;99.90;;;;;;4938391;28;20125;-66
2021/12/18 10:14:54;;;;;;;26.00;7.28;;;8.20;99.90;;;;;;4959725;28;20479;-66
2021/12/18 10:17:33;;;;;;;20.05;6.93;;;8.20;99.90;;;;;;4955385;28;20419;-66
2021/12/18 10:20:10;;;;;;;20.15;7.18;;;8.20;99.90;;;;;;4964395;28;20045;-66
2021/12/18 10:22:50;;;;;;;31.40;8.68;;;8.30;99.90;;;;;;4956535;28;20050;-66
2021/12/18 10:25:27;;;;;;;125.97;91.88;;;8.30;99.90;;;;;;4964096;28;20439;-67
2021/12/18 10:28:07;;;;;;;31.73;17.45;;;8.30;99.90;;;;;;4960326;28;20047;-66
2021/12/18 10:30:33;;;;;;;21.55;8.18;;;8.40;99.90;;;;;;4961974;28;20058;-65
2021/12/18 10:33:07;;;;;;;18.80;7.43;;;8.50;99.90;;;;;;4942607;28;20093;-65
2021/12/18 10:35:59;;;;;;;;;;;8.50;99.90;;;;;;4959691;28;20121;-65
2021/12/18 10:38:48;;;;;;;12.93;6.10;;;8.50;99.90;;;;;;4959312;28;19980;-65
2021/12/18 10:41:35;;;;;;;17.35;6.75;;;8.50;99.90;;;;;;4968226;28;20038;-65
2021/12/18 10:44:07;;;;;;;14.80;6.80;;;8.60;99.90;;;;;;4962186;28;20043;-65
2021/12/18 10:46:34;;;;;;;14.05;6.20;;;8.60;99.90;;;;;;4964203;28;20039;-65
2021/12/18 10:49:04;;;;;;;14.15;5.85;;;8.60;99.90;;;;;;4936471;28;20408;-66
2021/12/18 10:51:31;;;;;;;12.82;5.03;;;8.60;99.90;;;;;;4959702;28;20145;-65
2021/12/18 10:54:05;;;;;;;14.02;6.32;;;8.60;99.90;;;;;;4959622;28;20154;-65
2021/12/18 10:56:37;;;;;;;12.13;5.45;;;8.70;99.90;;;;;;4963378;28;20394;-65
2021/12/18 10:59:04;;;;;;;216.23;193.30;;;8.70;99.90;;;;;;4961377;28;20047;-65
2021/12/18 11:01:30;;;;;;;13.30;8.40;;;8.70;99.90;;;;;;4964936;28;20063;-65
2021/12/18 11:03:56;;;;;;;9.68;5.00;;;8.60;99.90;;;;;;4955092;28;20051;-65
2021/12/18 11:06:26;;;;;;;5.53;3.25;;;8.60;99.90;;;;;;4965317;28;20074;-65
2021/12/18 11:09:06;;;;;;;8.15;3.70;;;8.70;99.90;;;;;;4960010;28;20074;-65
2021/12/18 11:14:25;;;;;;;9.55;4.00;;;8.70;99.90;;;;;;4955742;28;20322;-66
2021/12/18 11:16:55;;;;;;;;;;;8.70;99.90;;;;;;4947375;28;20518;-66
2021/12/18 11:19:26;;;;;;;10.38;3.88;;;8.70;99.90;;;;;;4959269;28;19938;-66
2021/12/18 11:21:58;;;;;;;12.10;4.55;;;8.70;99.90;;;;;;4961214;28;20497;-66
2021/12/18 11:24:33;;;;;;;9.98;4.53;;;8.70;99.90;;;;;;4951162;28;20042;-65
2021/12/18 11:27:15;;;;;;;8.05;4.25;;;8.80;99.90;;;;;;4960590;28;20051;-65
2021/12/18 11:30:08;;;;;;;9.73;4.38;;;8.80;99.90;;;;;;4959066;28;20058;-65
2021/12/18 11:32:41;;;;;;;6.45;3.28;;;8.70;99.90;;;;;;4952972;28;20491;-65
2021/12/18 11:35:10;;;;;;;8.80;4.25;;;8.80;99.90;;;;;;4952587;28;20121;-66
2021/12/18 11:37:56;;;;;;;27.83;19.50;;;8.80;99.90;;;;;;4959391;28;20089;-65
2021/12/18 11:40:25;;;;;;;6.72;2.90;;;8.80;99.90;;;;;;4955440;28;20045;-66
2021/12/18 11:42:51;;;;;;;9.00;2.42;;;8.80;99.90;;;;;;4961325;28;20473;-66
2021/12/18 11:45:16;;;;;;;5.13;2.00;;;8.80;99.90;;;;;;4958599;28;20042;-66
2021/12/18 11:47:44;;;;;;;6.82;2.00;;;8.80;99.90;;;;;;4941123;28;20047;-66
2021/12/18 11:50:12;;;;;;;5.75;2.20;;;8.80;99.90;;;;;;4956444;28;20048;-66
2021/12/18 11:52:57;;;;;;;5.50;2.28;;;8.80;99.90;;;;;;4967088;28;20045;-66
2021/12/18 11:55:25;;;;;;;8.30;2.35;;;8.80;99.90;;;;;;4957555;28;20177;-66
2021/12/18 11:58:00;;;;;;;8.32;2.90;;;8.80;99.90;;;;;;4960400;28;20043;-66
2021/12/18 12:00:36;;;;;;;;;;;8.80;99.90;;;;;;4942508;28;20051;-65
2021/12/18 12:03:05;;;;;;;5.28;2.70;;;8.80;99.90;;;;;;4961676;28;19918;-65
2021/12/18 12:05:39;;;;;;;8.00;3.88;;;8.80;99.90;;;;;;4953113;28;20399;-66
2021/12/18 12:08:20;;;;;;;;;;;8.90;99.90;;;;;;4929408;28;20042;-66
2021/12/18 12:11:18;;;;;;;8.18;2.92;;;8.90;99.90;;;;;;4956080;28;20009;-66
2021/12/18 12:14:20;;;;;;;7.30;3.70;;;8.80;99.90;;;;;;4963147;28;20035;-66
2021/12/18 12:16:46;;;;;;;6.80;3.17;;;8.80;99.90;;;;;;4957810;28;20129;-67
2021/12/18 12:19:24;;;;;;;6.70;2.53;;;8.80;99.90;;;;;;4970334;28;20051;-66
2021/12/18 12:21:57;;;;;;;4.70;2.80;;;8.90;99.90;;;;;;4964542;28;20039;-66
2021/12/18 12:24:26;;;;;;;;;;;8.80;99.90;;;;;;4972082;28;20047;-66
2021/12/18 12:26:53;;;;;;;6.93;2.63;;;8.90;99.90;;;;;;4983321;28;19954;-66
2021/12/18 12:29:20;;;;;;;5.55;2.83;;;8.80;99.90;;;;;;4964181;28;20051;-66
2021/12/18 12:32:01;;;;;;;5.22;2.50;;;8.90;99.90;;;;;;4969709;28;20114;-66
2021/12/18 12:34:40;;;;;;;152.45;133.07;;;8.90;99.90;;;;;;4978747;28;20491;-67
2021/12/18 12:37:28;;;;;;;54.08;41.70;;;8.90;99.90;;;;;;4948527;28;20051;-66
2021/12/18 12:40:05;;;;;;;9.27;4.50;;;8.90;99.90;;;;;;4960715;28;20054;-66
2021/12/18 12:42:38;;;;;;;10.13;3.28;;;8.90;99.90;;;;;;4978005;28;20035;-66
2021/12/18 12:45:31;;;;;;;6.78;3.10;;;8.90;99.90;;;;;;4973404;28;20085;-66
2021/12/18 12:48:00;;;;;;;7.57;3.80;;;8.90;99.90;;;;;;4977931;28;20043;-66
2021/12/18 12:50:27;;;;;;;8.60;4.05;;;8.80;99.90;;;;;;4973516;28;20126;-65
2021/12/18 12:52:57;;;;;;;7.03;3.80;;;8.80;99.90;;;;;;4968157;28;20547;-65
2021/12/18 12:55:30;;;;;;;6.20;3.50;;;8.80;99.90;;;;;;4951227;28;20059;-65
2021/12/18 12:57:58;;;;;;;7.47;2.67;;;8.80;99.90;;;;;;4968666;28;20039;-65
2021/12/18 13:00:23;;;;;;;8.93;3.95;;;8.80;99.90;;;;;;4935832;28;20472;-66
2021/12/18 13:03:18;;;;;;;11.55;5.30;;;8.80;99.90;;;;;;4961029;28;20049;-65
2021/12/18 13:05:48;;;;;;;10.40;3.75;;;8.80;99.90;;;;;;4963567;28;20046;-65
2021/12/18 13:08:14;;;;;;;12.35;3.40;;;8.80;99.90;;;;;;4967314;28;20093;-65
2021/12/18 13:10:41;;;;;;;8.48;2.83;;;8.80;99.90;;;;;;4967807;28;20046;-65
2021/12/18 13:13:16;;;;;;;9.00;2.83;;;8.90;99.90;;;;;;4966257;28;20063;-65
2021/12/18 13:15:57;;;;;;;6.97;2.28;;;8.80;99.90;;;;;;4953800;28;20062;-65
2021/12/18 13:18:24;;;;;;;7.50;2.38;;;8.80;99.90;;;;;;4957302;28;20151;-65
2021/12/18 13:21:04;;;;;;;6.35;2.22;;;8.80;99.90;;;;;;4960263;28;20050;-65
2021/12/18 13:23:44;;;;;;;5.40;1.98;;;8.80;99.90;;;;;;4963014;28;20055;-65
2021/12/18 13:26:13;;;;;;;7.10;1.83;;;8.80;99.90;;;;;;4965364;28;20098;-66
2021/12/18 13:28:58;;;;;;;9.45;2.53;;;8.80;99.90;;;;;;4971534;28;20442;-66
2021/12/18 13:31:44;;;;;;;7.32;2.00;;;8.80;99.90;;;;;;4963432;28;20073;-66
2021/12/18 13:34:22;;;;;;;8.73;2.33;;;8.80;99.90;;;;;;4960438;28;20043;-65
2021/12/18 13:37:05;;;;;;;9.38;1.90;;;8.80;99.90;;;;;;4961306;28;20047;-66
2021/12/18 13:39:44;;;;;;;6.68;2.00;;;8.80;99.90;;;;;;4966668;28;20050;-66
2021/12/18 13:42:25;;;;;;;8.07;1.90;;;8.80;99.90;;;;;;4962119;28;20039;-64
2021/12/18 13:45:01;;;;;;;8.55;2.25;;;8.80;99.90;;;;;;4945104;28;20059;-65
2021/12/18 13:47:41;;;;;;;7.03;2.33;;;8.80;99.90;;;;;;4963160;28;20610;-65
2021/12/18 13:50:18;;;;;;;7.60;2.35;;;8.80;99.90;;;;;;4959210;28;20078;-65